sensor_id;sensor_type;location;lat;lon;timestamp;pressure;altitude;pressure_sealevel;temperature;humidity
28310;BME280;15571;50.974;13.936;2024-01-07T00:02:37;99934.44;;;2.51;100.00
28310;BME280;15571;50.974;13.936;2024-01-07T00:05:39;99930.00;;;2.85;100.00
28310;BME280;15571;50.974;13.936;2024-01-07T00:08:41;99932.19;;;3.08;100.00
28310;BME280;15571;50.974;13.936;2024-01-07T00:11:43;99935.06;;;3.23;100.00
28310;BME280;15571;50.974;13.936;2024-01-07T00:14:45;99934.47;;;3.37;100.00
28310;BME280;15571;50.974;13.936;2024-01-07T00:17:49;99942.16;;;2.89;100.00
28310;BME280;15571;50.974;13.936;2024-01-07T00:20:54;99937.06;;;2.92;100.00
28310;BME280;15571;50.974;13.936;2024-01-07T00:23:55;99945.38;;;2.79;100.00
28310;BME280;15571;50.974;13.936;2024-01-07T00:26:58;99943.75;;;2.84;100.00
28310;BME280;15571;50.974;13.936;2024-01-07T00:30:02;99942.03;;;2.83;100.00
28310;BME280;15571;50.974;13.936;2024-01-07T00:33:06;99945.38;;;2.77;100.00
28310;BME280;15571;50.974;13.936;2024-01-07T00:36:08;99947.41;;;2.92;100.00
28310;BME280;15571;50.974;13.936;2024-01-07T00:39:15;99949.72;;;2.80;100.00
28310;BME280;15571;50.974;13.936;2024-01-07T00:42:17;99960.13;;;2.83;100.00
28310;BME280;15571;50.974;13.936;2024-01-07T00:45:19;99960.00;;;2.40;100.00
28310;BME280;15571;50.974;13.936;2024-01-07T00:48:23;99958.44;;;2.45;100.00
28310;BME280;15571;50.974;13.936;2024-01-07T00:51:26;99959.25;;;2.83;100.00
28310;BME280;15571;50.974;13.936;2024-01-07T00:54:28;99960.03;;;2.78;100.00
28310;BME280;15571;50.974;13.936;2024-01-07T00:57:31;99965.94;;;2.73;100.00
28310;BME280;15571;50.974;13.936;2024-01-07T01:00:32;99957.66;;;2.89;100.00
28310;BME280;15571;50.974;13.936;2024-01-07T01:03:36;99961.13;;;2.90;100.00
28310;BME280;15571;50.974;13.936;2024-01-07T01:06:38;99965.94;;;2.73;100.00
28310;BME280;15571;50.974;13.936;2024-01-07T01:09:40;99968.94;;;2.93;100.00
28310;BME280;15571;50.974;13.936;2024-01-07T01:12:42;99980.00;;;2.86;100.00
28310;BME280;15571;50.974;13.936;2024-01-07T01:15:47;99972.28;;;2.87;100.00
28310;BME280;15571;50.974;13.936;2024-01-07T01:18:51;99975.31;;;3.09;100.00
28310;BME280;15571;50.974;13.936;2024-01-07T01:21:53;99981.44;;;3.13;100.00
28310;BME280;15571;50.974;13.936;2024-01-07T01:24:57;99987.50;;;3.13;100.00
28310;BME280;15571;50.974;13.936;2024-01-07T01:28:01;99994.63;;;3.26;100.00
28310;BME280;15571;50.974;13.936;2024-01-07T01:31:03;99997.56;;;3.01;100.00
28310;BME280;15571;50.974;13.936;2024-01-07T01:34:08;99995.78;;;2.60;100.00
28310;BME280;15571;50.974;13.936;2024-01-07T01:37:11;99999.78;;;2.47;100.00
28310;BME280;15571;50.974;13.936;2024-01-07T01:40:13;99999.88;;;2.50;100.00
28310;BME280;15571;50.974;13.936;2024-01-07T01:43:21;100003.31;;;2.51;100.00
28310;BME280;15571;50.974;13.936;2024-01-07T01:46:23;100003.00;;;2.73;100.00
28310;BME280;15571;50.974;13.936;2024-01-07T01:49:27;100002.66;;;2.98;100.00
28310;BME280;15571;50.974;13.936;2024-01-07T01:52:29;100000.72;;;2.49;100.00
28310;BME280;15571;50.974;13.936;2024-01-07T01:55:34;100007.19;;;2.31;100.00
28310;BME280;15571;50.974;13.936;2024-01-07T01:58:40;100007.50;;;2.45;100.00
28310;BME280;15571;50.974;13.936;2024-01-07T02:01:42;100018.13;;;2.21;100.00
28310;BME280;15571;50.974;13.936;2024-01-07T02:04:48;100016.50;;;2.26;100.00
28310;BME280;15571;50.974;13.936;2024-01-07T02:07:50;100027.22;;;2.07;100.00
28310;BME280;15571;50.974;13.936;2024-01-07T02:10:52;100028.22;;;1.78;100.00
28310;BME280;15571;50.974;13.936;2024-01-07T02:13:57;100029.75;;;2.05;100.00
28310;BME280;15571;50.974;13.936;2024-01-07T02:16:59;100037.72;;;2.13;100.00
28310;BME280;15571;50.974;13.936;2024-01-07T02:20:11;100034.91;;;2.39;100.00
28310;BME280;15571;50.974;13.936;2024-01-07T02:23:13;100047.97;;;2.10;100.00
28310;BME280;15571;50.974;13.936;2024-01-07T02:26:17;100046.75;;;2.29;100.00
28310;BME280;15571;50.974;13.936;2024-01-07T02:29:19;100038.41;;;2.06;100.00
28310;BME280;15571;50.974;13.936;2024-01-07T02:32:21;100039.16;;;2.37;100.00
28310;BME280;15571;50.974;13.936;2024-01-07T02:35:23;100052.31;;;2.12;100.00
28310;BME280;15571;50.974;13.936;2024-01-07T02:38:25;100048.59;;;2.35;100.00
28310;BME280;15571;50.974;13.936;2024-01-07T02:41:28;100050.63;;;2.48;100.00
28310;BME280;15571;50.974;13.936;2024-01-07T02:44:33;100057.78;;;2.23;100.00
28310;BME280;15571;50.974;13.936;2024-01-07T02:47:35;100052.19;;;2.08;100.00
28310;BME280;15571;50.974;13.936;2024-01-07T02:50:37;100054.97;;;2.14;100.00
28310;BME280;15571;50.974;13.936;2024-01-07T02:53:38;100060.06;;;2.12;100.00
28310;BME280;15571;50.974;13.936;2024-01-07T02:56:43;100061.94;;;2.18;100.00
28310;BME280;15571;50.974;13.936;2024-01-07T02:59:45;100067.44;;;1.98;100.00
28310;BME280;15571;50.974;13.936;2024-01-07T03:02:46;100068.59;;;2.08;100.00
28310;BME280;15571;50.974;13.936;2024-01-07T03:05:48;100071.91;;;2.38;100.00
28310;BME280;15571;50.974;13.936;2024-01-07T03:08:50;100073.34;;;2.26;100.00
28310;BME280;15571;50.974;13.936;2024-01-07T03:11:54;100081.72;;;1.84;100.00
28310;BME280;15571;50.974;13.936;2024-01-07T03:14:56;100072.94;;;2.11;100.00
28310;BME280;15571;50.974;13.936;2024-01-07T03:17:58;100067.16;;;1.88;100.00
28310;BME280;15571;50.974;13.936;2024-01-07T03:20:59;100059.72;;;1.66;100.00
28310;BME280;15571;50.974;13.936;2024-01-07T03:24:02;100079.53;;;1.99;100.00
28310;BME280;15571;50.974;13.936;2024-01-07T03:27:05;100065.63;;;1.94;100.00
28310;BME280;15571;50.974;13.936;2024-01-07T03:30:07;100066.03;;;1.78;100.00
28310;BME280;15571;50.974;13.936;2024-01-07T03:33:10;100068.75;;;1.82;100.00
28310;BME280;15571;50.974;13.936;2024-01-07T03:36:12;100070.31;;;1.76;100.00
28310;BME280;15571;50.974;13.936;2024-01-07T03:39:14;100069.19;;;1.99;100.00
28310;BME280;15571;50.974;13.936;2024-01-07T03:42:18;100066.50;;;1.95;100.00
28310;BME280;15571;50.974;13.936;2024-01-07T03:45:20;100083.25;;;2.09;100.00
28310;BME280;15571;50.974;13.936;2024-01-07T03:48:22;100081.75;;;2.19;100.00
28310;BME280;15571;50.974;13.936;2024-01-07T03:51:24;100084.56;;;1.95;100.00
28310;BME280;15571;50.974;13.936;2024-01-07T03:54:26;100093.22;;;1.95;100.00
28310;BME280;15571;50.974;13.936;2024-01-07T03:57:30;100085.38;;;2.24;100.00
28310;BME280;15571;50.974;13.936;2024-01-07T04:00:36;100088.56;;;2.49;100.00
28310;BME280;15571;50.974;13.936;2024-01-07T04:03:38;100086.44;;;2.32;100.00
28310;BME280;15571;50.974;13.936;2024-01-07T04:06:40;100094.56;;;2.48;100.00
28310;BME280;15571;50.974;13.936;2024-01-07T04:09:42;100087.88;;;2.56;100.00
28310;BME280;15571;50.974;13.936;2024-01-07T04:12:46;100095.88;;;2.32;100.00
28310;BME280;15571;50.974;13.936;2024-01-07T04:15:51;100097.50;;;2.28;100.00
28310;BME280;15571;50.974;13.936;2024-01-07T04:18:53;100097.91;;;2.44;100.00
28310;BME280;15571;50.974;13.936;2024-01-07T04:21:55;100104.06;;;2.49;100.00
28310;BME280;15571;50.974;13.936;2024-01-07T04:24:57;100103.38;;;2.23;100.00
28310;BME280;15571;50.974;13.936;2024-01-07T04:28:01;100105.59;;;2.09;100.00
28310;BME280;15571;50.974;13.936;2024-01-07T04:31:03;100105.72;;;2.13;100.00
28310;BME280;15571;50.974;13.936;2024-01-07T04:34:05;100116.38;;;1.94;100.00
28310;BME280;15571;50.974;13.936;2024-01-07T04:37:07;100123.63;;;1.77;100.00
28310;BME280;15571;50.974;13.936;2024-01-07T04:40:09;100112.16;;;1.97;100.00
28310;BME280;15571;50.974;13.936;2024-01-07T04:43:13;100116.41;;;2.27;100.00
28310;BME280;15571;50.974;13.936;2024-01-07T04:46:15;100119.69;;;2.20;100.00
28310;BME280;15571;50.974;13.936;2024-01-07T04:49:17;100129.91;;;1.85;100.00
28310;BME280;15571;50.974;13.936;2024-01-07T04:52:19;100125.56;;;2.14;100.00
28310;BME280;15571;50.974;13.936;2024-01-07T04:55:21;100117.59;;;2.07;100.00
28310;BME280;15571;50.974;13.936;2024-01-07T04:58:26;100126.69;;;2.24;100.00
28310;BME280;15571;50.974;13.936;2024-01-07T05:01:28;100130.09;;;2.23;100.00
28310;BME280;15571;50.974;13.936;2024-01-07T05:04:30;100123.44;;;2.31;100.00
28310;BME280;15571;50.974;13.936;2024-01-07T05:07:36;100138.44;;;2.45;100.00
28310;BME280;15571;50.974;13.936;2024-01-07T05:10:39;100148.66;;;2.10;100.00
28310;BME280;15571;50.974;13.936;2024-01-07T05:13:42;100153.16;;;2.17;100.00
28310;BME280;15571;50.974;13.936;2024-01-07T05:16:44;100159.34;;;1.92;100.00
28310;BME280;15571;50.974;13.936;2024-01-07T05:19:46;100157.94;;;1.73;100.00
28310;BME280;15571;50.974;13.936;2024-01-07T05:22:48;100168.00;;;1.94;100.00
28310;BME280;15571;50.974;13.936;2024-01-07T05:25:51;100162.16;;;1.69;100.00
28310;BME280;15571;50.974;13.936;2024-01-07T05:28:55;100167.66;;;1.52;100.00
28310;BME280;15571;50.974;13.936;2024-01-07T05:31:57;100167.31;;;1.40;100.00
28310;BME280;15571;50.974;13.936;2024-01-07T05:35:00;100168.69;;;1.58;100.00
28310;BME280;15571;50.974;13.936;2024-01-07T05:38:03;100176.31;;;1.26;100.00
28310;BME280;15571;50.974;13.936;2024-01-07T05:41:05;100171.22;;;1.56;100.00
28310;BME280;15571;50.974;13.936;2024-01-07T05:44:09;100174.72;;;1.58;100.00
28310;BME280;15571;50.974;13.936;2024-01-07T05:47:11;100189.00;;;0.92;100.00
28310;BME280;15571;50.974;13.936;2024-01-07T05:50:13;100181.91;;;0.86;100.00
28310;BME280;15571;50.974;13.936;2024-01-07T05:53:17;100188.69;;;0.83;100.00
28310;BME280;15571;50.974;13.936;2024-01-07T05:56:19;100183.50;;;1.08;100.00
28310;BME280;15571;50.974;13.936;2024-01-07T05:59:25;100195.53;;;1.35;100.00
28310;BME280;15571;50.974;13.936;2024-01-07T06:02:26;100193.91;;;1.66;100.00
28310;BME280;15571;50.974;13.936;2024-01-07T06:05:29;100204.50;;;1.19;100.00
28310;BME280;15571;50.974;13.936;2024-01-07T06:08:32;100208.91;;;1.23;100.00
28310;BME280;15571;50.974;13.936;2024-01-07T06:11:37;100214.94;;;1.24;100.00
28310;BME280;15571;50.974;13.936;2024-01-07T06:14:40;100213.97;;;1.48;100.00
28310;BME280;15571;50.974;13.936;2024-01-07T06:17:43;100222.84;;;1.29;100.00
28310;BME280;15571;50.974;13.936;2024-01-07T06:20:47;100212.78;;;1.36;100.00
28310;BME280;15571;50.974;13.936;2024-01-07T06:23:48;100232.25;;;1.28;100.00
28310;BME280;15571;50.974;13.936;2024-01-07T06:26:50;100233.81;;;1.23;100.00
28310;BME280;15571;50.974;13.936;2024-01-07T06:29:54;100246.75;;;0.97;100.00
28310;BME280;15571;50.974;13.936;2024-01-07T06:32:56;100248.41;;;1.50;100.00
28310;BME280;15571;50.974;13.936;2024-01-07T06:35:58;100257.59;;;1.14;100.00
28310;BME280;15571;50.974;13.936;2024-01-07T06:39:00;100261.94;;;1.41;100.00
28310;BME280;15571;50.974;13.936;2024-01-07T06:42:05;100261.31;;;0.97;100.00
28310;BME280;15571;50.974;13.936;2024-01-07T06:45:09;100268.78;;;0.89;100.00
28310;BME280;15571;50.974;13.936;2024-01-07T06:48:11;100264.75;;;1.23;100.00
28310;BME280;15571;50.974;13.936;2024-01-07T06:51:13;100267.94;;;0.64;100.00
28310;BME280;15571;50.974;13.936;2024-01-07T06:54:16;100278.84;;;1.07;100.00
28310;BME280;15571;50.974;13.936;2024-01-07T06:57:17;100277.16;;;1.07;100.00
28310;BME280;15571;50.974;13.936;2024-01-07T07:00:21;100278.38;;;1.19;100.00
28310;BME280;15571;50.974;13.936;2024-01-07T07:03:23;100278.56;;;0.49;100.00
28310;BME280;15571;50.974;13.936;2024-01-07T07:06:26;100280.28;;;0.73;100.00
28310;BME280;15571;50.974;13.936;2024-01-07T07:09:29;100282.59;;;0.91;100.00
28310;BME280;15571;50.974;13.936;2024-01-07T07:12:31;100303.34;;;0.94;100.00
28310;BME280;15571;50.974;13.936;2024-01-07T07:15:35;100284.66;;;0.75;100.00
28310;BME280;15571;50.974;13.936;2024-01-07T07:18:36;100295.75;;;0.26;100.00
28310;BME280;15571;50.974;13.936;2024-01-07T07:21:38;100299.28;;;0.52;100.00
28310;BME280;15571;50.974;13.936;2024-01-07T07:24:42;100309.19;;;0.41;100.00
28310;BME280;15571;50.974;13.936;2024-01-07T07:27:44;100302.25;;;0.63;100.00
28310;BME280;15571;50.974;13.936;2024-01-07T07:30:47;100301.94;;;1.04;100.00
28310;BME280;15571;50.974;13.936;2024-01-07T07:33:49;100306.69;;;0.67;100.00
28310;BME280;15571;50.974;13.936;2024-01-07T07:36:52;100315.72;;;0.56;100.00
28310;BME280;15571;50.974;13.936;2024-01-07T07:39:56;100323.13;;;0.24;100.00
28310;BME280;15571;50.974;13.936;2024-01-07T07:42:58;100321.63;;;0.29;100.00
28310;BME280;15571;50.974;13.936;2024-01-07T07:46:04;100317.69;;;0.87;100.00
28310;BME280;15571;50.974;13.936;2024-01-07T07:49:09;100326.72;;;0.52;100.00
28310;BME280;15571;50.974;13.936;2024-01-07T07:52:11;100340.41;;;0.73;100.00
28310;BME280;15571;50.974;13.936;2024-01-07T07:55:14;100343.66;;;1.18;100.00
28310;BME280;15571;50.974;13.936;2024-01-07T07:58:17;100338.44;;;0.66;100.00
28310;BME280;15571;50.974;13.936;2024-01-07T08:01:20;100341.19;;;0.95;100.00
28310;BME280;15571;50.974;13.936;2024-01-07T08:04:22;100347.59;;;1.06;100.00
28310;BME280;15571;50.974;13.936;2024-01-07T08:07:24;100353.97;;;0.69;100.00
28310;BME280;15571;50.974;13.936;2024-01-07T08:10:29;100365.72;;;0.61;100.00
28310;BME280;15571;50.974;13.936;2024-01-07T08:13:32;100360.81;;;0.67;100.00
28310;BME280;15571;50.974;13.936;2024-01-07T08:16:37;100364.25;;;0.68;100.00
28310;BME280;15571;50.974;13.936;2024-01-07T08:19:39;100369.97;;;1.07;100.00
28310;BME280;15571;50.974;13.936;2024-01-07T08:22:41;100366.47;;;1.05;100.00
28310;BME280;15571;50.974;13.936;2024-01-07T08:25:43;100373.19;;;1.26;100.00
28310;BME280;15571;50.974;13.936;2024-01-07T08:28:46;100371.34;;;0.51;100.00
28310;BME280;15571;50.974;13.936;2024-01-07T08:31:49;100380.56;;;0.44;100.00
28310;BME280;15571;50.974;13.936;2024-01-07T08:34:52;100374.50;;;0.43;100.00
28310;BME280;15571;50.974;13.936;2024-01-07T08:37:54;100376.69;;;0.80;100.00
28310;BME280;15571;50.974;13.936;2024-01-07T08:40:56;100381.25;;;0.63;100.00
28310;BME280;15571;50.974;13.936;2024-01-07T08:44:02;100382.75;;;0.80;100.00
28310;BME280;15571;50.974;13.936;2024-01-07T08:47:05;100389.16;;;0.91;100.00
28310;BME280;15571;50.974;13.936;2024-01-07T08:50:08;100393.47;;;0.68;100.00
28310;BME280;15571;50.974;13.936;2024-01-07T08:53:10;100398.66;;;0.92;100.00
28310;BME280;15571;50.974;13.936;2024-01-07T08:56:13;100397.47;;;1.08;100.00
28310;BME280;15571;50.974;13.936;2024-01-07T08:59:14;100408.94;;;0.68;100.00
28310;BME280;15571;50.974;13.936;2024-01-07T09:02:18;100400.81;;;0.82;100.00
28310;BME280;15571;50.974;13.936;2024-01-07T09:05:20;100407.53;;;0.76;100.00
28310;BME280;15571;50.974;13.936;2024-01-07T09:08:22;100412.09;;;0.38;100.00
28310;BME280;15571;50.974;13.936;2024-01-07T09:11:24;100412.78;;;0.34;100.00
28310;BME280;15571;50.974;13.936;2024-01-07T09:14:26;100412.22;;;0.64;100.00
28310;BME280;15571;50.974;13.936;2024-01-07T09:17:29;100422.72;;;0.70;100.00
28310;BME280;15571;50.974;13.936;2024-01-07T09:20:31;100419.88;;;1.09;100.00
28310;BME280;15571;50.974;13.936;2024-01-07T09:23:34;100424.78;;;0.79;100.00
28310;BME280;15571;50.974;13.936;2024-01-07T09:26:36;100428.47;;;0.86;100.00
28310;BME280;15571;50.974;13.936;2024-01-07T09:29:38;100424.53;;;1.20;100.00
28310;BME280;15571;50.974;13.936;2024-01-07T09:32:41;100428.88;;;1.21;100.00
28310;BME280;15571;50.974;13.936;2024-01-07T09:35:44;100430.34;;;0.90;100.00
28310;BME280;15571;50.974;13.936;2024-01-07T09:38:46;100427.72;;;0.88;100.00
28310;BME280;15571;50.974;13.936;2024-01-07T09:41:48;100429.97;;;1.03;100.00
28310;BME280;15571;50.974;13.936;2024-01-07T09:44:51;100431.09;;;0.87;100.00
28310;BME280;15571;50.974;13.936;2024-01-07T09:47:54;100428.97;;;0.75;100.00
28310;BME280;15571;50.974;13.936;2024-01-07T09:50:56;100430.63;;;0.75;100.00
28310;BME280;15571;50.974;13.936;2024-01-07T09:54:02;100439.25;;;0.53;100.00
28310;BME280;15571;50.974;13.936;2024-01-07T09:57:06;100442.59;;;0.50;100.00
28310;BME280;15571;50.974;13.936;2024-01-07T10:00:08;100424.84;;;0.35;100.00
28310;BME280;15571;50.974;13.936;2024-01-07T10:03:15;100445.56;;;0.38;100.00
28310;BME280;15571;50.974;13.936;2024-01-07T10:06:17;100442.31;;;0.88;100.00
28310;BME280;15571;50.974;13.936;2024-01-07T10:09:22;100445.91;;;0.70;100.00
28310;BME280;15571;50.974;13.936;2024-01-07T10:12:26;100452.84;;;0.49;100.00
28310;BME280;15571;50.974;13.936;2024-01-07T10:15:28;100452.19;;;0.54;100.00
28310;BME280;15571;50.974;13.936;2024-01-07T10:18:31;100449.50;;;0.74;100.00
28310;BME280;15571;50.974;13.936;2024-01-07T10:21:37;100440.88;;;0.51;100.00
28310;BME280;15571;50.974;13.936;2024-01-07T10:24:39;100442.66;;;0.52;100.00
28310;BME280;15571;50.974;13.936;2024-01-07T10:27:42;100446.84;;;0.50;100.00
28310;BME280;15571;50.974;13.936;2024-01-07T10:30:48;100451.19;;;0.73;100.00
28310;BME280;15571;50.974;13.936;2024-01-07T10:33:52;100452.06;;;0.74;100.00
28310;BME280;15571;50.974;13.936;2024-01-07T10:36:54;100458.06;;;0.73;100.00
28310;BME280;15571;50.974;13.936;2024-01-07T10:39:58;100453.44;;;0.64;100.00
28310;BME280;15571;50.974;13.936;2024-01-07T10:43:04;100455.31;;;0.68;100.00
28310;BME280;15571;50.974;13.936;2024-01-07T10:46:06;100472.16;;;0.60;100.00
28310;BME280;15571;50.974;13.936;2024-01-07T10:49:13;100470.47;;;0.39;100.00
28310;BME280;15571;50.974;13.936;2024-01-07T10:52:19;100464.59;;;0.65;100.00
28310;BME280;15571;50.974;13.936;2024-01-07T10:55:25;100469.94;;;0.46;100.00
28310;BME280;15571;50.974;13.936;2024-01-07T10:58:29;100462.88;;;0.42;100.00
28310;BME280;15571;50.974;13.936;2024-01-07T11:01:32;100460.34;;;0.65;100.00
28310;BME280;15571;50.974;13.936;2024-01-07T11:04:40;100463.50;;;0.58;100.00
28310;BME280;15571;50.974;13.936;2024-01-07T11:07:45;100457.28;;;0.53;100.00
28310;BME280;15571;50.974;13.936;2024-01-07T11:10:48;100462.44;;;0.75;100.00
28310;BME280;15571;50.974;13.936;2024-01-07T11:13:52;100466.28;;;0.41;100.00
28310;BME280;15571;50.974;13.936;2024-01-07T11:16:57;100475.41;;;-0.09;100.00
28310;BME280;15571;50.974;13.936;2024-01-07T11:20:00;100473.06;;;0.39;100.00
28310;BME280;15571;50.974;13.936;2024-01-07T11:26:22;100478.59;;;0.49;100.00
28310;BME280;15571;50.974;13.936;2024-01-07T11:29:31;100477.34;;;0.39;100.00
28310;BME280;15571;50.974;13.936;2024-01-07T11:32:36;100481.28;;;0.52;100.00
28310;BME280;15571;50.974;13.936;2024-01-07T11:35:59;100484.94;;;0.57;100.00
28310;BME280;15571;50.974;13.936;2024-01-07T11:39:03;100498.19;;;0.66;100.00
28310;BME280;15571;50.974;13.936;2024-01-07T11:42:09;100474.97;;;0.43;100.00
28310;BME280;15571;50.974;13.936;2024-01-07T11:45:12;100478.78;;;0.76;100.00
28310;BME280;15571;50.974;13.936;2024-01-07T11:48:14;100496.44;;;0.23;100.00
28310;BME280;15571;50.974;13.936;2024-01-07T11:51:20;100484.75;;;0.31;100.00
28310;BME280;15571;50.974;13.936;2024-01-07T11:54:22;100492.34;;;0.07;100.00
28310;BME280;15571;50.974;13.936;2024-01-07T11:57:24;100487.91;;;0.24;100.00
28310;BME280;15571;50.974;13.936;2024-01-07T12:00:26;100486.06;;;0.42;100.00
28310;BME280;15571;50.974;13.936;2024-01-07T12:03:28;100491.56;;;0.73;100.00
28310;BME280;15571;50.974;13.936;2024-01-07T12:06:31;100487.31;;;0.75;100.00
28310;BME280;15571;50.974;13.936;2024-01-07T12:09:33;100497.19;;;0.63;100.00
28310;BME280;15571;50.974;13.936;2024-01-07T12:12:35;100492.41;;;0.51;100.00
28310;BME280;15571;50.974;13.936;2024-01-07T12:15:37;100496.84;;;0.11;100.00
28310;BME280;15571;50.974;13.936;2024-01-07T12:18:39;100500.56;;;0.40;100.00
28310;BME280;15571;50.974;13.936;2024-01-07T12:21:42;100514.47;;;0.23;100.00
28310;BME280;15571;50.974;13.936;2024-01-07T12:24:44;100513.97;;;0.53;100.00
28310;BME280;15571;50.974;13.936;2024-01-07T12:27:46;100510.69;;;0.57;100.00
28310;BME280;15571;50.974;13.936;2024-01-07T12:30:52;100516.66;;;0.13;100.00
28310;BME280;15571;50.974;13.936;2024-01-07T12:33:57;100515.25;;;0.64;100.00
28310;BME280;15571;50.974;13.936;2024-01-07T12:37:01;100515.56;;;0.28;100.00
28310;BME280;15571;50.974;13.936;2024-01-07T12:40:05;100514.09;;;0.78;100.00
28310;BME280;15571;50.974;13.936;2024-01-07T12:43:10;100526.50;;;0.89;100.00
28310;BME280;15571;50.974;13.936;2024-01-07T12:46:12;100531.41;;;0.60;100.00
28310;BME280;15571;50.974;13.936;2024-01-07T12:49:18;100530.44;;;0.14;100.00
28310;BME280;15571;50.974;13.936;2024-01-07T12:52:24;100536.75;;;0.01;100.00
28310;BME280;15571;50.974;13.936;2024-01-07T12:55:27;100543.13;;;0.30;100.00
28310;BME280;15571;50.974;13.936;2024-01-07T12:58:30;100545.50;;;0.26;100.00
28310;BME280;15571;50.974;13.936;2024-01-07T13:01:32;100542.06;;;0.46;100.00
28310;BME280;15571;50.974;13.936;2024-01-07T13:04:35;100548.44;;;0.56;100.00
28310;BME280;15571;50.974;13.936;2024-01-07T13:07:39;100548.38;;;0.12;100.00
28310;BME280;15571;50.974;13.936;2024-01-07T13:10:41;100547.78;;;-0.02;100.00
28310;BME280;15571;50.974;13.936;2024-01-07T13:13:43;100550.09;;;0.33;100.00
28310;BME280;15571;50.974;13.936;2024-01-07T13:16:45;100551.97;;;0.37;100.00
28310;BME280;15571;50.974;13.936;2024-01-07T13:19:47;100555.84;;;0.06;100.00
28310;BME280;15571;50.974;13.936;2024-01-07T13:22:50;100560.75;;;0.21;100.00
28310;BME280;15571;50.974;13.936;2024-01-07T13:25:52;100557.50;;;0.46;100.00
28310;BME280;15571;50.974;13.936;2024-01-07T13:28:54;100563.72;;;0.73;100.00
28310;BME280;15571;50.974;13.936;2024-01-07T13:31:56;100564.28;;;0.44;100.00
28310;BME280;15571;50.974;13.936;2024-01-07T13:35:00;100564.28;;;0.66;100.00
28310;BME280;15571;50.974;13.936;2024-01-07T13:38:03;100562.72;;;0.92;100.00
28310;BME280;15571;50.974;13.936;2024-01-07T13:41:05;100556.31;;;1.03;100.00
28310;BME280;15571;50.974;13.936;2024-01-07T13:44:07;100559.81;;;1.05;100.00
28310;BME280;15571;50.974;13.936;2024-01-07T13:47:17;100561.72;;;0.88;100.00
28310;BME280;15571;50.974;13.936;2024-01-07T13:50:22;100556.59;;;0.88;100.00
28310;BME280;15571;50.974;13.936;2024-01-07T13:53:25;100565.09;;;0.86;100.00
28310;BME280;15571;50.974;13.936;2024-01-07T13:56:27;100574.53;;;0.64;100.00
28310;BME280;15571;50.974;13.936;2024-01-07T13:59:29;100575.38;;;1.08;100.00
28310;BME280;15571;50.974;13.936;2024-01-07T14:02:31;100575.97;;;1.01;100.00
28310;BME280;15571;50.974;13.936;2024-01-07T14:05:33;100581.38;;;1.07;100.00
28310;BME280;15571;50.974;13.936;2024-01-07T14:08:36;100586.69;;;0.89;100.00
28310;BME280;15571;50.974;13.936;2024-01-07T14:11:38;100588.63;;;0.95;100.00
28310;BME280;15571;50.974;13.936;2024-01-07T14:14:40;100595.81;;;0.81;100.00
28310;BME280;15571;50.974;13.936;2024-01-07T14:17:42;100591.03;;;0.69;100.00
28310;BME280;15571;50.974;13.936;2024-01-07T14:20:44;100595.50;;;0.73;100.00
28310;BME280;15571;50.974;13.936;2024-01-07T14:23:47;100598.19;;;0.98;100.00
28310;BME280;15571;50.974;13.936;2024-01-07T14:26:49;100600.06;;;0.58;100.00
28310;BME280;15571;50.974;13.936;2024-01-07T14:29:52;100591.28;;;0.54;100.00
28310;BME280;15571;50.974;13.936;2024-01-07T14:32:54;100600.97;;;0.60;100.00
28310;BME280;15571;50.974;13.936;2024-01-07T14:35:56;100594.94;;;0.59;100.00
28310;BME280;15571;50.974;13.936;2024-01-07T14:38:59;100600.19;;;0.20;100.00
28310;BME280;15571;50.974;13.936;2024-01-07T14:42:03;100600.16;;;0.19;100.00
28310;BME280;15571;50.974;13.936;2024-01-07T14:45:06;100600.16;;;0.19;100.00
28310;BME280;15571;50.974;13.936;2024-01-07T14:48:09;100608.53;;;0.14;100.00
28310;BME280;15571;50.974;13.936;2024-01-07T14:51:11;100612.09;;;0.59;100.00
28310;BME280;15571;50.974;13.936;2024-01-07T14:54:15;100611.25;;;0.18;100.00
28310;BME280;15571;50.974;13.936;2024-01-07T14:57:18;100611.25;;;0.18;100.00
28310;BME280;15571;50.974;13.936;2024-01-07T15:00:20;100615.03;;;0.47;100.00
28310;BME280;15571;50.974;13.936;2024-01-07T15:03:22;100615.56;;;0.38;100.00
28310;BME280;15571;50.974;13.936;2024-01-07T15:06:25;100615.16;;;0.29;100.00
28310;BME280;15571;50.974;13.936;2024-01-07T15:09:31;100616.78;;;0.27;100.00
28310;BME280;15571;50.974;13.936;2024-01-07T15:12:35;100619.28;;;0.25;100.00
28310;BME280;15571;50.974;13.936;2024-01-07T15:15:39;100617.56;;;0.45;100.00
28310;BME280;15571;50.974;13.936;2024-01-07T15:18:43;100635.78;;;-0.10;100.00
28310;BME280;15571;50.974;13.936;2024-01-07T15:21:45;100636.31;;;0.02;100.00
28310;BME280;15571;50.974;13.936;2024-01-07T15:24:48;100623.31;;;0.19;100.00
28310;BME280;15571;50.974;13.936;2024-01-07T15:27:50;100641.59;;;0.25;100.00
28310;BME280;15571;50.974;13.936;2024-01-07T15:30:52;100641.25;;;0.17;100.00
28310;BME280;15571;50.974;13.936;2024-01-07T15:33:55;100640.28;;;0.35;100.00
28310;BME280;15571;50.974;13.936;2024-01-07T15:36:57;100637.41;;;0.27;100.00
28310;BME280;15571;50.974;13.936;2024-01-07T15:40:00;100651.75;;;0.02;100.00
28310;BME280;15571;50.974;13.936;2024-01-07T15:43:04;100643.50;;;0.09;100.00
28310;BME280;15571;50.974;13.936;2024-01-07T15:46:06;100640.84;;;0.27;100.00
28310;BME280;15571;50.974;13.936;2024-01-07T15:49:08;100647.16;;;0.14;100.00